EZY42MY LPFR-EGGW
Flight info
| Callsign | EZY42MY |
|---|---|
| Flight time | 2h 11m |
| Altitude | 38000 |
| Route | N0424F380 DCT ELVAR DCT BARDI DCT ZMR DCT NUBLO DCT RONSI DCT DELOG DCT FUJTI DCT IDNUN DCT ATGEB DCT DIKRO DCT ELDOP/N0408F360 DCT LUGIS UM185 TELTU |
| Aircraft | A320/M-SDE3FGHIRWY/LB1 |
Departure
| Time | 2026-05-01 13:14 |
|---|---|
| Airport | Faro - Gago Coutinho International Airport (LPFR) |
Arrival
| Time | 2026-05-01 15:25 |
|---|---|
| Airport | London Luton Airport (EGGW) |
| Time | Latitude | Longitude | Altitude | Speed | Heading |
|---|---|---|---|---|---|
| 2026-05-01 12:40 | 37.01890 | -7.96698 | 20 ft | 0 kts | 9° |
| 2026-05-01 12:41 | 37.01899 | -7.96697 | 20 ft | 0 kts | 9° |
| 2026-05-01 13:07 | 37.01818 | -7.96753 | 20 ft | 0 kts | 99° |
| 2026-05-01 13:07 | 37.01814 | -7.96727 | 21 ft | 8 kts | 100° |
| 2026-05-01 13:08 | 37.01806 | -7.96666 | 20 ft | 6 kts | 100° |
| 2026-05-01 13:08 | 37.01798 | -7.96610 | 20 ft | 7 kts | 100° |
| 2026-05-01 13:08 | 37.01788 | -7.96554 | 20 ft | 6 kts | 112° |
| 2026-05-01 13:08 | 37.01749 | -7.96526 | 20 ft | 11 kts | 171° |
| 2026-05-01 13:09 | 37.01680 | -7.96538 | 20 ft | 9 kts | 190° |
| 2026-05-01 13:09 | 37.01626 | -7.96522 | 22 ft | 9 kts | 136° |
| 2026-05-01 13:09 | 37.01612 | -7.96479 | 20 ft | 12 kts | 100° |
| 2026-05-01 13:09 | 37.01599 | -7.96387 | 21 ft | 11 kts | 100° |
| 2026-05-01 13:10 | 37.01587 | -7.96302 | 20 ft | 9 kts | 100° |
| 2026-05-01 13:10 | 37.01576 | -7.96227 | 20 ft | 8 kts | 100° |
| 2026-05-01 13:10 | 37.01566 | -7.96159 | 20 ft | 9 kts | 100° |
| 2026-05-01 13:10 | 37.01555 | -7.96085 | 22 ft | 10 kts | 100° |
| 2026-05-01 13:11 | 37.01542 | -7.95995 | 22 ft | 10 kts | 99° |
| 2026-05-01 13:11 | 37.01531 | -7.95913 | 18 ft | 9 kts | 102° |
| 2026-05-01 13:11 | 37.01502 | -7.95850 | 18 ft | 8 kts | 142° |
| 2026-05-01 13:11 | 37.01461 | -7.95842 | 19 ft | 4 kts | 188° |
| 2026-05-01 13:12 | 37.01436 | -7.95847 | 19 ft | 5 kts | 188° |
| 2026-05-01 13:12 | 37.01401 | -7.95854 | 20 ft | 5 kts | 192° |
| 2026-05-01 13:12 | 37.01349 | -7.95879 | 21 ft | 8 kts | 234° |
| 2026-05-01 13:12 | 37.01348 | -7.95913 | 21 ft | 0 kts | 280° |
| 2026-05-01 13:13 | 37.01357 | -7.95978 | 22 ft | 33 kts | 279° |
| 2026-05-01 13:13 | 37.01441 | -7.96571 | 23 ft | 102 kts | 280° |
| 2026-05-01 13:13 | 37.01598 | -7.97685 | 46 ft | 152 kts | 277° |
| 2026-05-01 13:14 | 37.01761 | -7.98982 | 631 ft | 153 kts | 278° |
| 2026-05-01 13:14 | 37.01963 | -8.00371 | 1034 ft | 173 kts | 278° |
| 2026-05-01 13:14 | 37.02198 | -8.01957 | 1347 ft | 198 kts | 280° |
| 2026-05-01 13:14 | 37.02460 | -8.03712 | 1905 ft | 210 kts | 279° |
| 2026-05-01 13:15 | 37.02731 | -8.05527 | 2614 ft | 215 kts | 280° |
| 2026-05-01 13:15 | 37.03016 | -8.07381 | 3300 ft | 222 kts | 283° |
| 2026-05-01 13:15 | 37.03752 | -8.09163 | 3634 ft | 245 kts | 315° |
| 2026-05-01 13:15 | 37.05263 | -8.10205 | 4099 ft | 262 kts | 350° |
| 2026-05-01 13:16 | 37.07076 | -8.09967 | 4845 ft | 268 kts | 21° |
| 2026-05-01 13:16 | 37.08820 | -8.09075 | 5621 ft | 274 kts | 22° |
| 2026-05-01 13:16 | 37.10621 | -8.08182 | 6332 ft | 283 kts | 21° |
| 2026-05-01 13:17 | 37.16306 | -8.05439 | 8583 ft | 299 kts | 21° |
| 2026-05-01 13:17 | 37.18267 | -8.04496 | 9327 ft | 304 kts | 21° |
| 2026-05-01 13:18 | 37.22322 | -8.02532 | 10449 ft | 328 kts | 21° |
| 2026-05-01 13:18 | 37.24526 | -8.01460 | 10671 ft | 351 kts | 21° |
| 2026-05-01 13:18 | 37.26837 | -8.00333 | 11184 ft | 360 kts | 21° |
| 2026-05-01 13:18 | 37.29190 | -7.99180 | 11839 ft | 365 kts | 21° |
| 2026-05-01 13:19 | 37.31573 | -7.98015 | 12502 ft | 370 kts | 21° |
| 2026-05-01 13:19 | 37.33985 | -7.96838 | 13181 ft | 374 kts | 21° |
| 2026-05-01 13:19 | 37.38896 | -7.94433 | 14411 ft | 383 kts | 20° |
| 2026-05-01 13:20 | 37.41387 | -7.93211 | 15014 ft | 386 kts | 20° |
| 2026-05-01 13:20 | 37.43897 | -7.91976 | 15620 ft | 389 kts | 20° |
| 2026-05-01 13:20 | 37.46424 | -7.90733 | 16212 ft | 392 kts | 20° |
| 2026-05-01 13:21 | 37.51516 | -7.88236 | 17375 ft | 398 kts | 19° |
| 2026-05-01 13:21 | 37.54108 | -7.86967 | 17966 ft | 401 kts | 19° |
| 2026-05-01 13:21 | 37.56719 | -7.85684 | 18532 ft | 404 kts | 19° |
| 2026-05-01 13:21 | 37.59345 | -7.84390 | 19032 ft | 407 kts | 19° |
| 2026-05-01 13:22 | 37.61992 | -7.83081 | 19531 ft | 410 kts | 18° |
| 2026-05-01 13:22 | 37.64658 | -7.81764 | 20039 ft | 413 kts | 18° |
| 2026-05-01 13:22 | 37.67343 | -7.80441 | 20544 ft | 416 kts | 18° |
| 2026-05-01 13:22 | 37.70045 | -7.79109 | 21062 ft | 419 kts | 18° |
| 2026-05-01 13:23 | 37.72767 | -7.77769 | 21557 ft | 422 kts | 17° |
| 2026-05-01 13:23 | 37.75516 | -7.76412 | 22042 ft | 425 kts | 17° |
| 2026-05-01 13:23 | 37.78273 | -7.75046 | 22542 ft | 428 kts | 17° |
| 2026-05-01 13:23 | 37.81057 | -7.73665 | 23021 ft | 431 kts | 17° |
| 2026-05-01 13:24 | 37.83858 | -7.72278 | 23490 ft | 434 kts | 17° |
| 2026-05-01 13:24 | 37.86679 | -7.70880 | 23911 ft | 437 kts | 17° |
| 2026-05-01 13:24 | 37.88556 | -7.69948 | 24170 ft | 438 kts | 17° |
| 2026-05-01 13:25 | 37.95219 | -7.66630 | 25096 ft | 443 kts | 16° |
| 2026-05-01 13:25 | 37.97119 | -7.65686 | 25357 ft | 444 kts | 16° |
| 2026-05-01 13:25 | 38.00002 | -7.64252 | 25726 ft | 445 kts | 16° |
| 2026-05-01 13:25 | 38.02888 | -7.62812 | 26085 ft | 447 kts | 16° |
| 2026-05-01 13:26 | 38.05790 | -7.61358 | 26437 ft | 449 kts | 16° |
| 2026-05-01 13:26 | 38.08699 | -7.59898 | 26795 ft | 451 kts | 16° |
| 2026-05-01 13:26 | 38.11619 | -7.58433 | 27170 ft | 451 kts | 15° |
| 2026-05-01 13:26 | 38.14542 | -7.56970 | 27523 ft | 453 kts | 15° |
| 2026-05-01 13:27 | 38.17482 | -7.55501 | 27854 ft | 455 kts | 15° |
| 2026-05-01 13:27 | 38.20431 | -7.54029 | 28184 ft | 457 kts | 15° |
| 2026-05-01 13:27 | 38.26366 | -7.51053 | 28814 ft | 460 kts | 15° |
| 2026-05-01 13:28 | 38.32338 | -7.48045 | 29407 ft | 464 kts | 15° |
| 2026-05-01 13:28 | 38.35345 | -7.46527 | 29703 ft | 465 kts | 15° |
| 2026-05-01 13:29 | 38.41381 | -7.43473 | 30240 ft | 469 kts | 14° |
| 2026-05-01 13:29 | 38.47488 | -7.40391 | 30625 ft | 474 kts | 14° |
| 2026-05-01 13:30 | 38.59802 | -7.34155 | 31640 ft | 476 kts | 14° |
| 2026-05-01 13:31 | 38.65946 | -7.31032 | 32206 ft | 475 kts | 14° |
| 2026-05-01 13:31 | 38.75152 | -7.26352 | 33042 ft | 474 kts | 14° |
| 2026-05-01 13:32 | 38.81281 | -7.23232 | 33595 ft | 474 kts | 14° |
| 2026-05-01 13:33 | 38.90429 | -7.18538 | 34471 ft | 470 kts | 14° |
| 2026-05-01 13:33 | 38.96514 | -7.15419 | 34867 ft | 471 kts | 14° |
| 2026-05-01 13:34 | 39.02607 | -7.12297 | 35285 ft | 472 kts | 14° |
| 2026-05-01 13:34 | 39.08697 | -7.09160 | 35661 ft | 472 kts | 13° |
| 2026-05-01 13:35 | 39.14795 | -7.06014 | 36026 ft | 472 kts | 14° |
| 2026-05-01 13:35 | 39.17799 | -7.04460 | 36184 ft | 472 kts | 13° |
| 2026-05-01 13:35 | 39.23900 | -7.01309 | 36523 ft | 472 kts | 13° |
| 2026-05-01 13:36 | 39.26954 | -6.99732 | 36689 ft | 472 kts | 13° |
| 2026-05-01 13:36 | 39.30005 | -6.98153 | 36846 ft | 473 kts | 13° |
| 2026-05-01 13:36 | 39.36104 | -6.94988 | 37158 ft | 473 kts | 13° |
| 2026-05-01 13:37 | 39.39158 | -6.93404 | 37332 ft | 473 kts | 13° |
| 2026-05-01 13:37 | 39.42214 | -6.91818 | 37487 ft | 473 kts | 13° |
| 2026-05-01 13:37 | 39.45267 | -6.90231 | 37612 ft | 473 kts | 13° |
| 2026-05-01 13:37 | 39.48318 | -6.88637 | 37750 ft | 473 kts | 13° |
| 2026-05-01 13:38 | 39.54414 | -6.85443 | 38059 ft | 472 kts | 13° |
| 2026-05-01 13:38 | 39.57457 | -6.83850 | 38112 ft | 471 kts | 13° |
| 2026-05-01 13:39 | 39.63516 | -6.80676 | 38122 ft | 468 kts | 14° |
| 2026-05-01 13:39 | 39.69547 | -6.77514 | 38134 ft | 467 kts | 14° |
| 2026-05-01 13:40 | 39.75579 | -6.74351 | 38130 ft | 467 kts | 14° |
| 2026-05-01 13:40 | 39.81601 | -6.71185 | 38124 ft | 467 kts | 14° |
| 2026-05-01 13:41 | 39.87633 | -6.68004 | 38149 ft | 468 kts | 14° |
| 2026-05-01 13:41 | 39.93666 | -6.64815 | 38151 ft | 468 kts | 14° |
| 2026-05-01 13:42 | 39.99702 | -6.61618 | 38137 ft | 469 kts | 14° |
| 2026-05-01 13:42 | 40.05749 | -6.58410 | 38141 ft | 469 kts | 14° |
| 2026-05-01 13:43 | 40.11796 | -6.55199 | 38159 ft | 469 kts | 14° |
| 2026-05-01 13:43 | 40.17800 | -6.52010 | 38160 ft | 469 kts | 14° |
| 2026-05-01 13:44 | 40.23843 | -6.48788 | 38161 ft | 469 kts | 14° |
| 2026-05-01 13:44 | 40.29880 | -6.45549 | 38160 ft | 469 kts | 16° |
| 2026-05-01 13:45 | 40.35913 | -6.42308 | 38174 ft | 468 kts | 15° |
| 2026-05-01 13:45 | 40.41933 | -6.39080 | 38162 ft | 466 kts | 15° |
| 2026-05-01 13:46 | 40.47941 | -6.35860 | 38157 ft | 467 kts | 15° |
| 2026-05-01 13:46 | 40.53955 | -6.32623 | 38156 ft | 467 kts | 15° |
| 2026-05-01 13:47 | 40.59962 | -6.29349 | 38161 ft | 468 kts | 17° |
| 2026-05-01 13:47 | 40.65897 | -6.25787 | 38157 ft | 470 kts | 19° |
| 2026-05-01 13:48 | 40.71803 | -6.22075 | 38154 ft | 470 kts | 19° |
| 2026-05-01 13:48 | 40.77720 | -6.18398 | 38175 ft | 470 kts | 19° |
| 2026-05-01 13:49 | 40.83586 | -6.14808 | 38161 ft | 470 kts | 19° |
| 2026-05-01 13:49 | 40.89522 | -6.11185 | 38156 ft | 470 kts | 19° |
| 2026-05-01 13:50 | 40.95453 | -6.07542 | 38149 ft | 470 kts | 20° |
| 2026-05-01 13:50 | 41.01366 | -6.03890 | 38166 ft | 468 kts | 20° |
| 2026-05-01 13:51 | 41.07262 | -6.00231 | 38162 ft | 467 kts | 20° |
| 2026-05-01 13:51 | 41.13152 | -5.96580 | 38160 ft | 467 kts | 20° |
| 2026-05-01 13:52 | 41.19034 | -5.92932 | 38157 ft | 467 kts | 20° |
| 2026-05-01 13:52 | 41.24915 | -5.89280 | 38166 ft | 467 kts | 21° |
| 2026-05-01 13:53 | 41.30754 | -5.85633 | 38155 ft | 467 kts | 21° |
| 2026-05-01 13:53 | 41.39605 | -5.80107 | 38156 ft | 466 kts | 21° |
| 2026-05-01 13:54 | 41.45441 | -5.76457 | 38162 ft | 467 kts | 21° |
| 2026-05-01 13:54 | 41.51317 | -5.72771 | 38152 ft | 467 kts | 21° |
| 2026-05-01 13:55 | 41.57163 | -5.69088 | 38151 ft | 467 kts | 22° |
| 2026-05-01 13:55 | 41.62977 | -5.65428 | 38154 ft | 467 kts | 22° |
| 2026-05-01 13:56 | 41.68846 | -5.61730 | 38165 ft | 466 kts | 22° |
| 2026-05-01 13:56 | 41.74714 | -5.58021 | 38162 ft | 466 kts | 22° |
| 2026-05-01 13:57 | 41.79591 | -5.54932 | 38155 ft | 466 kts | 22° |
| 2026-05-01 13:57 | 41.86448 | -5.50580 | 38161 ft | 467 kts | 22° |
| 2026-05-01 13:58 | 41.92316 | -5.46845 | 38159 ft | 467 kts | 22° |
| 2026-05-01 13:58 | 41.98184 | -5.43100 | 38153 ft | 467 kts | 22° |
| 2026-05-01 13:59 | 42.04051 | -5.39353 | 38156 ft | 467 kts | 22° |
| 2026-05-01 13:59 | 42.09918 | -5.35594 | 38164 ft | 467 kts | 23° |
| 2026-05-01 14:00 | 42.15749 | -5.31847 | 38159 ft | 467 kts | 23° |
| 2026-05-01 14:00 | 42.21617 | -5.28081 | 38162 ft | 467 kts | 23° |
| 2026-05-01 14:01 | 42.27480 | -5.24306 | 38160 ft | 467 kts | 24° |
| 2026-05-01 14:01 | 42.33334 | -5.20519 | 38166 ft | 466 kts | 24° |
| 2026-05-01 14:02 | 42.39189 | -5.16733 | 38159 ft | 466 kts | 24° |
| 2026-05-01 14:02 | 42.45043 | -5.12948 | 38157 ft | 466 kts | 24° |
| 2026-05-01 14:03 | 42.50898 | -5.09167 | 38171 ft | 466 kts | 23° |
| 2026-05-01 14:03 | 42.56827 | -5.05619 | 38166 ft | 466 kts | 21° |
| 2026-05-01 14:04 | 42.62794 | -5.02203 | 38163 ft | 466 kts | 21° |
| 2026-05-01 14:04 | 42.67751 | -4.99334 | 38159 ft | 466 kts | 21° |
| 2026-05-01 14:05 | 42.74698 | -4.95220 | 38146 ft | 466 kts | 22° |
| 2026-05-01 14:05 | 42.80626 | -4.91681 | 38154 ft | 465 kts | 22° |
| 2026-05-01 14:06 | 42.86548 | -4.88159 | 38158 ft | 464 kts | 22° |
| 2026-05-01 14:06 | 42.92467 | -4.84640 | 38168 ft | 464 kts | 22° |
| 2026-05-01 14:07 | 42.98382 | -4.81114 | 38161 ft | 464 kts | 22° |
| 2026-05-01 14:08 | 43.07203 | -4.75831 | 38152 ft | 463 kts | 22° |
| 2026-05-01 14:08 | 43.13104 | -4.72288 | 38149 ft | 463 kts | 22° |
| 2026-05-01 14:09 | 43.19003 | -4.68738 | 38154 ft | 464 kts | 22° |
| 2026-05-01 14:09 | 43.24913 | -4.65183 | 38146 ft | 464 kts | 22° |
| 2026-05-01 14:10 | 43.30829 | -4.61617 | 38144 ft | 464 kts | 22° |
| 2026-05-01 14:10 | 43.36738 | -4.58043 | 38153 ft | 463 kts | 22° |
| 2026-05-01 14:11 | 43.42633 | -4.54469 | 38153 ft | 463 kts | 22° |
| 2026-05-01 14:11 | 43.51457 | -4.49094 | 38162 ft | 462 kts | 22° |
| 2026-05-01 14:12 | 43.57333 | -4.45510 | 38173 ft | 462 kts | 22° |
| 2026-05-01 14:12 | 43.63208 | -4.41918 | 38161 ft | 462 kts | 22° |
| 2026-05-01 14:13 | 43.68086 | -4.38930 | 38156 ft | 461 kts | 22° |
| 2026-05-01 14:13 | 43.73958 | -4.35346 | 38153 ft | 461 kts | 22° |
| 2026-05-01 14:14 | 43.79823 | -4.31740 | 38163 ft | 461 kts | 23° |
| 2026-05-01 14:14 | 43.85683 | -4.28114 | 38153 ft | 461 kts | 23° |
| 2026-05-01 14:15 | 43.91550 | -4.24489 | 38145 ft | 462 kts | 23° |
| 2026-05-01 14:15 | 43.97415 | -4.20862 | 38154 ft | 462 kts | 23° |
| 2026-05-01 14:16 | 44.03245 | -4.17246 | 38152 ft | 462 kts | 23° |
| 2026-05-01 14:16 | 44.09133 | -4.13596 | 38155 ft | 462 kts | 23° |
| 2026-05-01 14:17 | 44.15003 | -4.09942 | 38155 ft | 462 kts | 23° |
| 2026-05-01 14:17 | 44.20871 | -4.06279 | 38167 ft | 463 kts | 23° |
| 2026-05-01 14:18 | 44.26746 | -4.02604 | 38167 ft | 463 kts | 23° |
| 2026-05-01 14:18 | 44.32586 | -3.98946 | 38170 ft | 463 kts | 23° |
| 2026-05-01 14:19 | 44.38569 | -3.95635 | 38175 ft | 462 kts | 18° |
| 2026-05-01 14:19 | 44.44673 | -3.92784 | 38177 ft | 462 kts | 17° |
| 2026-05-01 14:20 | 44.53808 | -3.88453 | 38178 ft | 462 kts | 18° |
| 2026-05-01 14:21 | 44.59871 | -3.85411 | 38186 ft | 463 kts | 19° |
| 2026-05-01 14:21 | 44.65930 | -3.82342 | 38181 ft | 463 kts | 18° |
| 2026-05-01 14:22 | 44.75022 | -3.77786 | 38187 ft | 462 kts | 18° |
| 2026-05-01 14:22 | 44.81077 | -3.74763 | 38192 ft | 462 kts | 18° |
| 2026-05-01 14:23 | 44.87130 | -3.71731 | 38190 ft | 462 kts | 18° |
| 2026-05-01 14:23 | 44.93179 | -3.68680 | 38189 ft | 461 kts | 18° |
| 2026-05-01 14:24 | 44.99222 | -3.65626 | 38200 ft | 462 kts | 18° |
| 2026-05-01 14:24 | 45.05272 | -3.62571 | 38203 ft | 462 kts | 18° |
| 2026-05-01 14:25 | 45.11324 | -3.59500 | 38199 ft | 462 kts | 18° |
| 2026-05-01 14:25 | 45.17377 | -3.56427 | 38210 ft | 462 kts | 18° |
| 2026-05-01 14:26 | 45.26460 | -3.51793 | 38210 ft | 463 kts | 19° |
| 2026-05-01 14:27 | 45.32517 | -3.48686 | 38208 ft | 463 kts | 19° |
| 2026-05-01 14:27 | 45.38569 | -3.45570 | 38217 ft | 462 kts | 18° |
| 2026-05-01 14:28 | 45.47643 | -3.40915 | 38220 ft | 462 kts | 18° |
| 2026-05-01 14:28 | 45.53647 | -3.37827 | 38226 ft | 462 kts | 18° |
| 2026-05-01 14:29 | 45.59684 | -3.34705 | 38225 ft | 461 kts | 18° |
| 2026-05-01 14:30 | 45.71753 | -3.28457 | 38220 ft | 461 kts | 18° |
| 2026-05-01 14:31 | 45.80749 | -3.23775 | 38232 ft | 461 kts | 18° |
| 2026-05-01 14:31 | 45.86779 | -3.20623 | 38228 ft | 461 kts | 19° |
| 2026-05-01 14:32 | 45.92808 | -3.17465 | 38237 ft | 461 kts | 19° |
| 2026-05-01 14:32 | 45.98827 | -3.14297 | 38233 ft | 460 kts | 18° |
| 2026-05-01 14:33 | 46.04843 | -3.11141 | 38238 ft | 459 kts | 18° |
| 2026-05-01 14:33 | 46.10842 | -3.07994 | 38239 ft | 459 kts | 18° |
| 2026-05-01 14:34 | 46.16840 | -3.04829 | 38251 ft | 459 kts | 18° |
| 2026-05-01 14:34 | 46.22825 | -3.01655 | 38247 ft | 458 kts | 18° |
| 2026-05-01 14:35 | 46.28812 | -2.98472 | 38238 ft | 458 kts | 18° |
| 2026-05-01 14:35 | 46.34793 | -2.95287 | 38244 ft | 458 kts | 18° |
| 2026-05-01 14:36 | 46.40776 | -2.92100 | 38245 ft | 459 kts | 18° |
| 2026-05-01 14:36 | 46.46732 | -2.88919 | 38247 ft | 459 kts | 19° |
| 2026-05-01 14:37 | 46.52728 | -2.85709 | 38246 ft | 459 kts | 19° |
| 2026-05-01 14:37 | 46.58722 | -2.82485 | 38239 ft | 459 kts | 18° |
| 2026-05-01 14:38 | 46.64708 | -2.79255 | 38253 ft | 458 kts | 18° |
| 2026-05-01 14:38 | 46.70684 | -2.76034 | 38257 ft | 457 kts | 18° |
| 2026-05-01 14:39 | 46.76647 | -2.72822 | 38254 ft | 457 kts | 18° |
| 2026-05-01 14:39 | 46.82604 | -2.69597 | 38252 ft | 456 kts | 19° |
| 2026-05-01 14:40 | 46.88555 | -2.66359 | 38243 ft | 456 kts | 19° |
| 2026-05-01 14:40 | 46.94500 | -2.63116 | 38260 ft | 456 kts | 19° |
| 2026-05-01 14:41 | 47.00445 | -2.59877 | 38251 ft | 456 kts | 19° |
| 2026-05-01 14:41 | 47.06386 | -2.56632 | 38240 ft | 456 kts | 19° |
| 2026-05-01 14:42 | 47.12333 | -2.53370 | 38235 ft | 456 kts | 19° |
| 2026-05-01 14:42 | 47.18284 | -2.50098 | 38245 ft | 457 kts | 19° |
| 2026-05-01 14:43 | 47.24236 | -2.46816 | 38222 ft | 457 kts | 19° |
| 2026-05-01 14:43 | 47.30178 | -2.43537 | 38236 ft | 456 kts | 19° |
| 2026-05-01 14:44 | 47.36108 | -2.40255 | 38247 ft | 455 kts | 19° |
| 2026-05-01 14:44 | 47.44993 | -2.35317 | 38238 ft | 455 kts | 19° |
| 2026-05-01 14:45 | 47.53891 | -2.30365 | 38228 ft | 455 kts | 19° |
| 2026-05-01 14:46 | 47.59813 | -2.27052 | 38228 ft | 455 kts | 19° |
| 2026-05-01 14:46 | 47.68702 | -2.22056 | 38223 ft | 456 kts | 19° |
| 2026-05-01 14:47 | 47.74636 | -2.18720 | 38218 ft | 456 kts | 19° |
| 2026-05-01 14:48 | 47.83539 | -2.13708 | 38215 ft | 456 kts | 19° |
| 2026-05-01 14:48 | 47.92435 | -2.08664 | 38209 ft | 456 kts | 19° |
| 2026-05-01 14:49 | 48.04235 | -2.01948 | 38211 ft | 455 kts | 19° |
| 2026-05-01 14:50 | 48.15996 | -1.95233 | 38216 ft | 454 kts | 19° |
| 2026-05-01 14:51 | 48.24850 | -1.90157 | 38208 ft | 454 kts | 20° |
| 2026-05-01 14:52 | 48.33712 | -1.85046 | 38216 ft | 455 kts | 20° |
| 2026-05-01 14:53 | 48.42588 | -1.79925 | 38234 ft | 456 kts | 20° |
| 2026-05-01 14:53 | 48.48511 | -1.76487 | 38233 ft | 456 kts | 20° |
| 2026-05-01 14:54 | 48.54439 | -1.73045 | 38232 ft | 457 kts | 20° |
| 2026-05-01 14:54 | 48.60325 | -1.69603 | 38240 ft | 457 kts | 20° |
| 2026-05-01 14:55 | 48.66248 | -1.66135 | 38260 ft | 457 kts | 20° |
| 2026-05-01 14:55 | 48.72175 | -1.62667 | 38253 ft | 456 kts | 20° |
| 2026-05-01 14:56 | 48.78103 | -1.59192 | 38251 ft | 456 kts | 20° |
| 2026-05-01 14:56 | 48.84021 | -1.55701 | 38231 ft | 456 kts | 20° |
| 2026-05-01 14:57 | 48.89937 | -1.52208 | 38242 ft | 456 kts | 20° |
| 2026-05-01 14:57 | 48.98811 | -1.46964 | 38232 ft | 456 kts | 20° |
| 2026-05-01 14:58 | 49.04684 | -1.43469 | 38231 ft | 456 kts | 20° |
| 2026-05-01 14:58 | 49.10589 | -1.39950 | 38228 ft | 455 kts | 20° |
| 2026-05-01 14:59 | 49.16500 | -1.36423 | 38226 ft | 455 kts | 20° |
| 2026-05-01 14:59 | 49.21406 | -1.33483 | 38225 ft | 455 kts | 21° |
| 2026-05-01 15:00 | 49.31191 | -1.27602 | 38232 ft | 453 kts | 20° |
| 2026-05-01 15:01 | 49.37065 | -1.24065 | 38223 ft | 453 kts | 20° |
| 2026-05-01 15:01 | 49.42937 | -1.20522 | 38225 ft | 452 kts | 20° |
| 2026-05-01 15:02 | 49.47810 | -1.17567 | 38226 ft | 452 kts | 20° |
| 2026-05-01 15:02 | 49.53670 | -1.14018 | 38237 ft | 452 kts | 21° |
| 2026-05-01 15:03 | 49.60602 | -1.10473 | 38230 ft | 450 kts | 9° |
| 2026-05-01 15:03 | 49.65769 | -1.09005 | 38227 ft | 451 kts | 9° |
| 2026-05-01 15:04 | 49.71937 | -1.07265 | 38225 ft | 451 kts | 9° |
| 2026-05-01 15:04 | 49.78066 | -1.05528 | 38225 ft | 451 kts | 9° |
| 2026-05-01 15:05 | 49.84245 | -1.03764 | 38221 ft | 451 kts | 9° |
| 2026-05-01 15:05 | 49.90423 | -1.01995 | 38221 ft | 451 kts | 9° |
| 2026-05-01 15:06 | 49.96538 | -1.00231 | 38145 ft | 452 kts | 9° |
| 2026-05-01 15:06 | 49.99667 | -0.99329 | 36825 ft | 465 kts | 10° |
| 2026-05-01 15:06 | 50.02861 | -0.98410 | 35258 ft | 471 kts | 10° |
| 2026-05-01 15:06 | 50.06101 | -0.97479 | 33615 ft | 475 kts | 11° |
| 2026-05-01 15:07 | 50.09364 | -0.96539 | 31788 ft | 478 kts | 11° |
| 2026-05-01 15:07 | 50.12654 | -0.95588 | 30071 ft | 483 kts | 12° |
| 2026-05-01 15:07 | 50.15914 | -0.94644 | 29232 ft | 468 kts | 12° |
| 2026-05-01 15:07 | 50.19148 | -0.93705 | 28957 ft | 480 kts | 12° |
| 2026-05-01 15:08 | 50.22476 | -0.92734 | 28682 ft | 492 kts | 12° |
| 2026-05-01 15:08 | 50.25876 | -0.91744 | 28400 ft | 501 kts | 12° |
| 2026-05-01 15:08 | 50.29317 | -0.90747 | 28132 ft | 505 kts | 11° |
| 2026-05-01 15:08 | 50.32780 | -0.90181 | 27862 ft | 508 kts | 6° |
| 2026-05-01 15:09 | 50.36308 | -0.89773 | 27605 ft | 510 kts | 5° |
| 2026-05-01 15:09 | 50.39850 | -0.89377 | 27341 ft | 510 kts | 5° |
| 2026-05-01 15:09 | 50.43395 | -0.88992 | 27078 ft | 512 kts | 5° |
| 2026-05-01 15:09 | 50.46959 | -0.88607 | 26822 ft | 514 kts | 5° |
| 2026-05-01 15:10 | 50.50531 | -0.88218 | 26567 ft | 515 kts | 5° |
| 2026-05-01 15:10 | 50.57685 | -0.87434 | 26063 ft | 516 kts | 5° |
| 2026-05-01 15:10 | 50.61273 | -0.87030 | 25815 ft | 517 kts | 5° |
| 2026-05-01 15:11 | 50.64859 | -0.86620 | 25561 ft | 518 kts | 5° |
| 2026-05-01 15:11 | 50.72075 | -0.85812 | 25070 ft | 521 kts | 5° |
| 2026-05-01 15:11 | 50.75697 | -0.85415 | 24846 ft | 522 kts | 5° |
| 2026-05-01 15:12 | 50.79321 | -0.85016 | 24332 ft | 522 kts | 5° |
| 2026-05-01 15:12 | 50.86501 | -0.84204 | 22929 ft | 513 kts | 5° |
| 2026-05-01 15:12 | 50.90044 | -0.83795 | 22288 ft | 509 kts | 5° |
| 2026-05-01 15:13 | 51.00497 | -0.82601 | 19690 ft | 494 kts | 5° |
| 2026-05-01 15:14 | 51.07218 | -0.81836 | 18231 ft | 478 kts | 5° |
| 2026-05-01 15:14 | 51.10525 | -0.81462 | 17392 ft | 473 kts | 5° |
| 2026-05-01 15:14 | 51.16980 | -0.80733 | 15895 ft | 462 kts | 5° |
| 2026-05-01 15:15 | 51.23332 | -0.80010 | 14487 ft | 452 kts | 5° |
| 2026-05-01 15:15 | 51.29506 | -0.79295 | 13036 ft | 443 kts | 4° |
| 2026-05-01 15:16 | 51.35593 | -0.78583 | 11552 ft | 434 kts | 4° |
| 2026-05-01 15:16 | 51.41563 | -0.77885 | 10109 ft | 425 kts | 4° |
| 2026-05-01 15:17 | 51.47394 | -0.77213 | 8584 ft | 415 kts | 4° |
| 2026-05-01 15:18 | 51.55520 | -0.75676 | 7784 ft | 363 kts | 13° |
| 2026-05-01 15:18 | 51.57918 | -0.74782 | 7640 ft | 346 kts | 13° |
| 2026-05-01 15:19 | 51.64499 | -0.72318 | 7271 ft | 304 kts | 13° |
| 2026-05-01 15:19 | 51.68450 | -0.70837 | 7018 ft | 279 kts | 13° |
| 2026-05-01 15:19 | 51.70306 | -0.70138 | 6903 ft | 267 kts | 13° |
| 2026-05-01 15:20 | 51.73854 | -0.68796 | 6325 ft | 259 kts | 13° |
| 2026-05-01 15:20 | 51.75604 | -0.68132 | 6004 ft | 257 kts | 13° |
| 2026-05-01 15:20 | 51.77344 | -0.67471 | 5656 ft | 257 kts | 13° |
| 2026-05-01 15:21 | 51.79081 | -0.66814 | 5352 ft | 255 kts | 13° |
| 2026-05-01 15:21 | 51.80720 | -0.65922 | 4941 ft | 249 kts | 30° |
| 2026-05-01 15:21 | 51.82063 | -0.64285 | 4546 ft | 240 kts | 48° |
| 2026-05-01 15:21 | 51.83026 | -0.61995 | 3766 ft | 247 kts | 71° |
| 2026-05-01 15:22 | 51.83996 | -0.56769 | 2833 ft | 238 kts | 78° |
| 2026-05-01 15:22 | 51.84431 | -0.54288 | 2524 ft | 220 kts | 78° |
| 2026-05-01 15:22 | 51.84835 | -0.51978 | 2258 ft | 208 kts | 79° |
| 2026-05-01 15:23 | 51.85214 | -0.49810 | 1977 ft | 192 kts | 78° |
| 2026-05-01 15:23 | 51.85559 | -0.47833 | 1740 ft | 174 kts | 81° |
| 2026-05-01 15:23 | 51.85872 | -0.46038 | 1513 ft | 159 kts | 80° |
| 2026-05-01 15:23 | 51.86166 | -0.44337 | 1313 ft | 155 kts | 78° |
| 2026-05-01 15:24 | 51.86446 | -0.42726 | 1111 ft | 146 kts | 80° |
| 2026-05-01 15:24 | 51.86713 | -0.41136 | 886 ft | 145 kts | 81° |
| 2026-05-01 15:24 | 51.86993 | -0.39590 | 732 ft | 141 kts | 77° |
| 2026-05-01 15:24 | 51.87252 | -0.38073 | 547 ft | 140 kts | 78° |
| 2026-05-01 15:25 | 51.87486 | -0.36706 | 526 ft | 99 kts | 73° |
| 2026-05-01 15:25 | 51.87594 | -0.36081 | 516 ft | 32 kts | 74° |
| 2026-05-01 15:25 | 51.87653 | -0.35924 | 516 ft | 13 kts | 18° |
| 2026-05-01 15:25 | 51.87693 | -0.35931 | 516 ft | 4 kts | 346° |
| 2026-05-01 15:26 | 51.87717 | -0.35941 | 516 ft | 4 kts | 345° |
| 2026-05-01 15:26 | 51.87741 | -0.35952 | 516 ft | 3 kts | 342° |
| 2026-05-01 15:26 | 51.87757 | -0.35969 | 516 ft | 2 kts | 323° |
| 2026-05-01 15:26 | 51.87782 | -0.36031 | 517 ft | 8 kts | 285° |
| 2026-05-01 15:27 | 51.87779 | -0.36102 | 518 ft | 6 kts | 254° |
| 2026-05-01 15:27 | 51.87761 | -0.36206 | 518 ft | 10 kts | 254° |
| 2026-05-01 15:27 | 51.87743 | -0.36310 | 518 ft | 9 kts | 254° |
| 2026-05-01 15:28 | 51.87718 | -0.36457 | 519 ft | 4 kts | 255° |
| 2026-05-01 15:28 | 51.87712 | -0.36489 | 520 ft | 2 kts | 255° |
| 2026-05-01 15:28 | 51.87711 | -0.36497 | 520 ft | 0 kts | 255° |
| 2026-05-01 15:29 | 51.87685 | -0.36651 | 521 ft | 9 kts | 254° |
| 2026-05-01 15:29 | 51.87668 | -0.36748 | 523 ft | 9 kts | 255° |
| 2026-05-01 15:29 | 51.87674 | -0.36944 | 524 ft | 13 kts | 326° |
| 2026-05-01 15:30 | 51.87889 | -0.37064 | 509 ft | 19 kts | 342° |
| 2026-05-01 15:31 | 51.88187 | -0.37222 | 516 ft | 4 kts | 341° |
| 2026-05-01 15:31 | 51.88249 | -0.37255 | 517 ft | 8 kts | 342° |
| 2026-05-01 15:32 | 51.88349 | -0.37351 | 511 ft | 2 kts | 244° |
| 2026-05-01 15:32 | 51.88333 | -0.37355 | 511 ft | 1 kts | 150° |
| 2026-05-01 15:33 | 51.88217 | -0.37394 | 516 ft | 14 kts | 251° |
| 2026-05-01 15:34 | 51.88170 | -0.37691 | 523 ft | 5 kts | 239° |